sensor_id;sensor_type;location;lat;lon;timestamp;P1;durP1;ratioP1;P2;durP2;ratioP2
17414;SDS011;8825;48.086;16.426;2023-02-12T00:05:32;16.00;;;14.30;;
17414;SDS011;8825;48.086;16.426;2023-02-12T00:08:01;17.13;;;14.17;;
17414;SDS011;8825;48.086;16.426;2023-02-12T00:10:29;16.97;;;14.93;;
17414;SDS011;8825;48.086;16.426;2023-02-12T00:12:57;18.03;;;15.03;;
17414;SDS011;8825;48.086;16.426;2023-02-12T00:18:47;19.40;;;15.33;;
17414;SDS011;8825;48.086;16.426;2023-02-12T00:24:42;17.57;;;15.10;;
17414;SDS011;8825;48.086;16.426;2023-02-12T00:27:10;18.33;;;15.30;;
17414;SDS011;8825;48.086;16.426;2023-02-12T00:29:38;19.07;;;15.87;;
17414;SDS011;8825;48.086;16.426;2023-02-12T00:32:06;18.57;;;15.70;;
17414;SDS011;8825;48.086;16.426;2023-02-12T00:34:34;20.43;;;16.97;;
17414;SDS011;8825;48.086;16.426;2023-02-12T00:40:24;18.43;;;16.13;;
17414;SDS011;8825;48.086;16.426;2023-02-12T00:42:51;18.67;;;15.27;;
17414;SDS011;8825;48.086;16.426;2023-02-12T00:45:19;19.10;;;16.00;;
17414;SDS011;8825;48.086;16.426;2023-02-12T00:47:47;20.03;;;16.37;;
17414;SDS011;8825;48.086;16.426;2023-02-12T00:50:15;16.57;;;14.53;;
17414;SDS011;8825;48.086;16.426;2023-02-12T00:52:43;18.53;;;14.67;;
17414;SDS011;8825;48.086;16.426;2023-02-12T00:55:10;17.57;;;15.50;;
17414;SDS011;8825;48.086;16.426;2023-02-12T00:57:38;16.03;;;14.10;;
17414;SDS011;8825;48.086;16.426;2023-02-12T01:00:06;21.50;;;15.00;;
17414;SDS011;8825;48.086;16.426;2023-02-12T01:02:35;17.47;;;15.20;;
17414;SDS011;8825;48.086;16.426;2023-02-12T01:05:03;17.93;;;14.83;;
17414;SDS011;8825;48.086;16.426;2023-02-12T01:10:54;17.20;;;14.97;;
17414;SDS011;8825;48.086;16.426;2023-02-12T01:13:24;18.70;;;14.90;;
17414;SDS011;8825;48.086;16.426;2023-02-12T01:19:15;16.97;;;14.53;;
17414;SDS011;8825;48.086;16.426;2023-02-12T01:25:05;17.20;;;14.53;;
17414;SDS011;8825;48.086;16.426;2023-02-12T01:27:34;16.90;;;14.67;;
17414;SDS011;8825;48.086;16.426;2023-02-12T01:30:02;19.40;;;15.67;;
17414;SDS011;8825;48.086;16.426;2023-02-12T01:35:29;17.87;;;15.97;;
17414;SDS011;8825;48.086;16.426;2023-02-12T01:37:57;18.63;;;15.93;;
17414;SDS011;8825;48.086;16.426;2023-02-12T01:40:25;17.10;;;15.30;;
17414;SDS011;8825;48.086;16.426;2023-02-12T01:46:03;17.47;;;15.33;;
17414;SDS011;8825;48.086;16.426;2023-02-12T01:52:02;19.17;;;15.13;;
17414;SDS011;8825;48.086;16.426;2023-02-12T01:54:33;17.90;;;15.17;;
17414;SDS011;8825;48.086;16.426;2023-02-12T02:00:24;17.80;;;14.33;;
17414;SDS011;8825;48.086;16.426;2023-02-12T02:06:15;17.60;;;15.57;;
17414;SDS011;8825;48.086;16.426;2023-02-12T02:08:46;19.13;;;16.50;;
17414;SDS011;8825;48.086;16.426;2023-02-12T02:14:52;17.17;;;14.63;;
17414;SDS011;8825;48.086;16.426;2023-02-12T02:20:55;18.43;;;15.37;;
17414;SDS011;8825;48.086;16.426;2023-02-12T02:34:53;17.90;;;15.27;;
17414;SDS011;8825;48.086;16.426;2023-02-12T02:40:46;17.57;;;15.57;;
17414;SDS011;8825;48.086;16.426;2023-02-12T02:46:46;19.23;;;16.87;;
17414;SDS011;8825;48.086;16.426;2023-02-12T02:49:23;20.73;;;16.73;;
17414;SDS011;8825;48.086;16.426;2023-02-12T02:55:16;19.83;;;16.90;;
17414;SDS011;8825;48.086;16.426;2023-02-12T03:01:12;18.77;;;16.77;;
17414;SDS011;8825;48.086;16.426;2023-02-12T03:03:49;19.80;;;17.20;;
17414;SDS011;8825;48.086;16.426;2023-02-12T03:06:21;18.70;;;16.30;;
17414;SDS011;8825;48.086;16.426;2023-02-12T03:08:52;21.60;;;17.30;;
17414;SDS011;8825;48.086;16.426;2023-02-12T03:11:29;19.50;;;16.53;;
17414;SDS011;8825;48.086;16.426;2023-02-12T03:13:56;18.80;;;15.87;;
17414;SDS011;8825;48.086;16.426;2023-02-12T03:16:30;19.20;;;16.87;;
17414;SDS011;8825;48.086;16.426;2023-02-12T03:25:06;21.67;;;17.53;;
17414;SDS011;8825;48.086;16.426;2023-02-12T03:31:11;20.30;;;17.20;;
17414;SDS011;8825;48.086;16.426;2023-02-12T03:37:03;20.30;;;17.20;;
17414;SDS011;8825;48.086;16.426;2023-02-12T03:39:52;22.63;;;17.97;;
17414;SDS011;8825;48.086;16.426;2023-02-12T03:48:18;24.13;;;19.13;;
17414;SDS011;8825;48.086;16.426;2023-02-12T03:50:56;22.17;;;18.33;;
17414;SDS011;8825;48.086;16.426;2023-02-12T03:56:31;20.13;;;16.97;;
17414;SDS011;8825;48.086;16.426;2023-02-12T04:02:04;19.47;;;16.73;;
17414;SDS011;8825;48.086;16.426;2023-02-12T04:04:33;21.63;;;17.47;;
17414;SDS011;8825;48.086;16.426;2023-02-12T04:32:11;21.10;;;17.73;;
17414;SDS011;8825;48.086;16.426;2023-02-12T04:37:47;24.33;;;18.70;;
17414;SDS011;8825;48.086;16.426;2023-02-12T04:40:14;24.70;;;18.97;;
17414;SDS011;8825;48.086;16.426;2023-02-12T04:46:06;22.33;;;17.80;;
17414;SDS011;8825;48.086;16.426;2023-02-12T04:51:44;19.40;;;16.70;;
17414;SDS011;8825;48.086;16.426;2023-02-12T04:54:13;22.17;;;18.60;;
17414;SDS011;8825;48.086;16.426;2023-02-12T04:56:42;22.83;;;19.20;;
17414;SDS011;8825;48.086;16.426;2023-02-12T04:59:11;21.03;;;17.57;;
17414;SDS011;8825;48.086;16.426;2023-02-12T05:01:39;23.73;;;19.40;;
17414;SDS011;8825;48.086;16.426;2023-02-12T05:04:08;21.80;;;18.03;;
17414;SDS011;8825;48.086;16.426;2023-02-12T05:06:39;21.67;;;18.57;;
17414;SDS011;8825;48.086;16.426;2023-02-12T05:22:02;19.37;;;16.60;;
17414;SDS011;8825;48.086;16.426;2023-02-12T05:24:30;20.43;;;17.87;;
17414;SDS011;8825;48.086;16.426;2023-02-12T05:26:58;21.93;;;19.27;;
17414;SDS011;8825;48.086;16.426;2023-02-12T05:29:25;22.03;;;19.60;;
17414;SDS011;8825;48.086;16.426;2023-02-12T05:31:53;22.33;;;19.03;;
17414;SDS011;8825;48.086;16.426;2023-02-12T05:37:43;20.67;;;17.27;;
17414;SDS011;8825;48.086;16.426;2023-02-12T05:40:11;20.67;;;17.57;;
17414;SDS011;8825;48.086;16.426;2023-02-12T05:46:02;21.53;;;18.63;;
17414;SDS011;8825;48.086;16.426;2023-02-12T05:51:53;22.17;;;19.47;;
17414;SDS011;8825;48.086;16.426;2023-02-12T05:57:43;24.97;;;19.47;;
17414;SDS011;8825;48.086;16.426;2023-02-12T06:03:33;23.97;;;19.60;;
17414;SDS011;8825;48.086;16.426;2023-02-12T06:06:00;23.00;;;18.87;;
17414;SDS011;8825;48.086;16.426;2023-02-12T06:11:50;22.00;;;18.67;;
17414;SDS011;8825;48.086;16.426;2023-02-12T06:17:40;24.13;;;20.67;;
17414;SDS011;8825;48.086;16.426;2023-02-12T06:20:08;22.40;;;20.00;;
17414;SDS011;8825;48.086;16.426;2023-02-12T06:22:36;23.10;;;19.17;;
17414;SDS011;8825;48.086;16.426;2023-02-12T06:25:04;23.90;;;20.77;;
17414;SDS011;8825;48.086;16.426;2023-02-12T06:27:32;24.27;;;19.20;;
17414;SDS011;8825;48.086;16.426;2023-02-12T06:30:00;26.67;;;19.87;;
17414;SDS011;8825;48.086;16.426;2023-02-12T06:32:28;21.90;;;18.47;;
17414;SDS011;8825;48.086;16.426;2023-02-12T06:34:56;24.47;;;21.13;;
17414;SDS011;8825;48.086;16.426;2023-02-12T06:37:23;21.77;;;19.37;;
17414;SDS011;8825;48.086;16.426;2023-02-12T06:43:13;25.13;;;20.23;;
17414;SDS011;8825;48.086;16.426;2023-02-12T06:45:41;24.07;;;20.03;;
17414;SDS011;8825;48.086;16.426;2023-02-12T06:51:31;23.33;;;19.50;;
17414;SDS011;8825;48.086;16.426;2023-02-12T06:56:58;26.67;;;18.87;;
17414;SDS011;8825;48.086;16.426;2023-02-12T07:02:54;24.77;;;20.17;;
17414;SDS011;8825;48.086;16.426;2023-02-12T07:08:45;21.57;;;18.40;;
17414;SDS011;8825;48.086;16.426;2023-02-12T07:11:14;23.33;;;18.70;;
17414;SDS011;8825;48.086;16.426;2023-02-12T07:17:04;24.00;;;19.03;;
17414;SDS011;8825;48.086;16.426;2023-02-12T07:25:32;21.17;;;17.40;;
17414;SDS011;8825;48.086;16.426;2023-02-12T07:27:59;19.87;;;16.57;;
17414;SDS011;8825;48.086;16.426;2023-02-12T07:30:27;21.70;;;18.03;;
17414;SDS011;8825;48.086;16.426;2023-02-12T07:32:54;19.97;;;17.00;;
17414;SDS011;8825;48.086;16.426;2023-02-12T07:35:22;20.97;;;17.90;;
17414;SDS011;8825;48.086;16.426;2023-02-12T07:37:49;22.30;;;17.87;;
17414;SDS011;8825;48.086;16.426;2023-02-12T07:40:17;19.80;;;16.57;;
17414;SDS011;8825;48.086;16.426;2023-02-12T07:42:44;22.47;;;18.03;;
17414;SDS011;8825;48.086;16.426;2023-02-12T07:45:14;18.80;;;16.47;;
17414;SDS011;8825;48.086;16.426;2023-02-12T07:47:41;17.73;;;15.73;;
17414;SDS011;8825;48.086;16.426;2023-02-12T07:50:09;19.93;;;17.73;;
17414;SDS011;8825;48.086;16.426;2023-02-12T07:52:36;20.13;;;16.23;;
17414;SDS011;8825;48.086;16.426;2023-02-12T07:55:04;19.77;;;16.00;;
17414;SDS011;8825;48.086;16.426;2023-02-12T07:57:33;18.93;;;16.17;;
17414;SDS011;8825;48.086;16.426;2023-02-12T08:00:01;19.13;;;15.83;;
17414;SDS011;8825;48.086;16.426;2023-02-12T08:02:30;17.07;;;14.57;;
17414;SDS011;8825;48.086;16.426;2023-02-12T08:04:57;17.40;;;15.33;;
17414;SDS011;8825;48.086;16.426;2023-02-12T08:07:25;19.07;;;15.37;;
17414;SDS011;8825;48.086;16.426;2023-02-12T08:09:52;17.93;;;15.60;;
17414;SDS011;8825;48.086;16.426;2023-02-12T08:12:20;17.53;;;15.63;;
17414;SDS011;8825;48.086;16.426;2023-02-12T08:14:48;20.93;;;16.83;;
17414;SDS011;8825;48.086;16.426;2023-02-12T08:17:16;18.03;;;16.13;;
17414;SDS011;8825;48.086;16.426;2023-02-12T08:19:43;18.23;;;15.13;;
17414;SDS011;8825;48.086;16.426;2023-02-12T08:22:11;20.33;;;16.60;;
17414;SDS011;8825;48.086;16.426;2023-02-12T08:24:39;19.37;;;16.60;;
17414;SDS011;8825;48.086;16.426;2023-02-12T08:27:07;20.53;;;16.93;;
17414;SDS011;8825;48.086;16.426;2023-02-12T08:29:34;17.83;;;15.27;;
17414;SDS011;8825;48.086;16.426;2023-02-12T08:32:02;18.53;;;16.53;;
17414;SDS011;8825;48.086;16.426;2023-02-12T08:34:32;22.03;;;17.33;;
17414;SDS011;8825;48.086;16.426;2023-02-12T08:37:01;19.50;;;16.77;;
17414;SDS011;8825;48.086;16.426;2023-02-12T08:39:31;21.40;;;16.07;;
17414;SDS011;8825;48.086;16.426;2023-02-12T08:41:59;20.40;;;15.60;;
17414;SDS011;8825;48.086;16.426;2023-02-12T08:44:27;18.70;;;15.20;;
17414;SDS011;8825;48.086;16.426;2023-02-12T08:46:55;17.83;;;14.50;;
17414;SDS011;8825;48.086;16.426;2023-02-12T08:49:24;17.17;;;15.23;;
17414;SDS011;8825;48.086;16.426;2023-02-12T08:51:53;16.93;;;14.47;;
17414;SDS011;8825;48.086;16.426;2023-02-12T08:54:23;15.97;;;13.87;;
17414;SDS011;8825;48.086;16.426;2023-02-12T08:59:39;16.50;;;13.07;;
17414;SDS011;8825;48.086;16.426;2023-02-12T09:02:08;16.33;;;13.00;;
17414;SDS011;8825;48.086;16.426;2023-02-12T09:04:36;17.13;;;14.17;;
17414;SDS011;8825;48.086;16.426;2023-02-12T09:07:04;14.87;;;13.20;;
17414;SDS011;8825;48.086;16.426;2023-02-12T09:09:32;15.83;;;13.63;;
17414;SDS011;8825;48.086;16.426;2023-02-12T09:11:59;16.50;;;12.67;;
17414;SDS011;8825;48.086;16.426;2023-02-12T09:14:27;15.07;;;13.00;;
17414;SDS011;8825;48.086;16.426;2023-02-12T09:16:54;15.63;;;12.87;;
17414;SDS011;8825;48.086;16.426;2023-02-12T09:19:23;15.63;;;13.37;;
17414;SDS011;8825;48.086;16.426;2023-02-12T09:22:11;15.80;;;13.60;;
17414;SDS011;8825;48.086;16.426;2023-02-12T09:24:38;14.67;;;13.17;;
17414;SDS011;8825;48.086;16.426;2023-02-12T09:27:06;16.60;;;13.50;;
17414;SDS011;8825;48.086;16.426;2023-02-12T09:29:34;14.80;;;13.03;;
17414;SDS011;8825;48.086;16.426;2023-02-12T09:32:01;14.87;;;12.53;;
17414;SDS011;8825;48.086;16.426;2023-02-12T09:34:34;14.67;;;12.53;;
17414;SDS011;8825;48.086;16.426;2023-02-12T09:37:02;16.27;;;12.47;;
17414;SDS011;8825;48.086;16.426;2023-02-12T09:39:30;16.77;;;12.43;;
17414;SDS011;8825;48.086;16.426;2023-02-12T09:47:30;14.20;;;11.27;;
17414;SDS011;8825;48.086;16.426;2023-02-12T09:50:05;13.70;;;10.90;;
17414;SDS011;8825;48.086;16.426;2023-02-12T09:52:44;14.07;;;11.67;;
17414;SDS011;8825;48.086;16.426;2023-02-12T09:55:14;12.80;;;10.90;;
17414;SDS011;8825;48.086;16.426;2023-02-12T09:57:43;14.30;;;12.80;;
17414;SDS011;8825;48.086;16.426;2023-02-12T10:00:17;13.80;;;11.73;;
17414;SDS011;8825;48.086;16.426;2023-02-12T10:02:49;14.73;;;11.83;;
17414;SDS011;8825;48.086;16.426;2023-02-12T10:05:19;11.90;;;10.27;;
17414;SDS011;8825;48.086;16.426;2023-02-12T10:13:48;15.17;;;12.00;;
17414;SDS011;8825;48.086;16.426;2023-02-12T10:22:12;11.00;;;9.80;;
17414;SDS011;8825;48.086;16.426;2023-02-12T10:30:30;13.20;;;10.70;;
17414;SDS011;8825;48.086;16.426;2023-02-12T10:32:41;13.97;;;9.37;;
17414;SDS011;8825;48.086;16.426;2023-02-12T10:35:17;11.57;;;9.73;;
17414;SDS011;8825;48.086;16.426;2023-02-12T10:37:57;12.60;;;11.00;;
17414;SDS011;8825;48.086;16.426;2023-02-12T10:40:42;12.03;;;9.37;;
17414;SDS011;8825;48.086;16.426;2023-02-12T10:43:10;10.87;;;9.77;;
17414;SDS011;8825;48.086;16.426;2023-02-12T10:45:40;11.10;;;9.90;;
17414;SDS011;8825;48.086;16.426;2023-02-12T10:53:40;10.77;;;9.20;;
17414;SDS011;8825;48.086;16.426;2023-02-12T10:58:51;9.23;;;8.03;;
17414;SDS011;8825;48.086;16.426;2023-02-12T11:01:23;9.93;;;8.80;;
17414;SDS011;8825;48.086;16.426;2023-02-12T11:03:58;11.50;;;9.37;;
17414;SDS011;8825;48.086;16.426;2023-02-12T11:06:28;10.83;;;8.90;;
17414;SDS011;8825;48.086;16.426;2023-02-12T11:08:58;9.37;;;8.03;;
17414;SDS011;8825;48.086;16.426;2023-02-12T11:11:29;9.20;;;8.30;;
17414;SDS011;8825;48.086;16.426;2023-02-12T11:14:02;9.77;;;8.77;;
17414;SDS011;8825;48.086;16.426;2023-02-12T11:16:53;7.47;;;6.63;;
17414;SDS011;8825;48.086;16.426;2023-02-12T11:19:27;7.60;;;6.33;;
17414;SDS011;8825;48.086;16.426;2023-02-12T11:24:42;8.17;;;6.40;;
17414;SDS011;8825;48.086;16.426;2023-02-12T11:29:44;7.93;;;7.13;;
17414;SDS011;8825;48.086;16.426;2023-02-12T11:32:14;7.30;;;6.60;;
17414;SDS011;8825;48.086;16.426;2023-02-12T11:34:43;8.43;;;7.17;;
17414;SDS011;8825;48.086;16.426;2023-02-12T11:37:17;8.70;;;6.67;;
17414;SDS011;8825;48.086;16.426;2023-02-12T11:39:46;7.10;;;6.40;;
17414;SDS011;8825;48.086;16.426;2023-02-12T11:42:21;6.23;;;5.63;;
17414;SDS011;8825;48.086;16.426;2023-02-12T11:44:50;7.53;;;6.73;;
17414;SDS011;8825;48.086;16.426;2023-02-12T11:47:29;11.13;;;7.80;;
17414;SDS011;8825;48.086;16.426;2023-02-12T11:52:36;7.67;;;6.83;;
17414;SDS011;8825;48.086;16.426;2023-02-12T11:55:09;7.87;;;7.03;;
17414;SDS011;8825;48.086;16.426;2023-02-12T11:57:46;9.10;;;6.70;;
17414;SDS011;8825;48.086;16.426;2023-02-12T12:03:11;7.70;;;6.67;;
17414;SDS011;8825;48.086;16.426;2023-02-12T12:05:44;7.40;;;6.10;;
17414;SDS011;8825;48.086;16.426;2023-02-12T12:13:48;8.37;;;7.47;;
17414;SDS011;8825;48.086;16.426;2023-02-12T12:16:18;10.03;;;8.70;;
17414;SDS011;8825;48.086;16.426;2023-02-12T12:19:07;11.30;;;9.53;;
17414;SDS011;8825;48.086;16.426;2023-02-12T12:22:06;10.27;;;9.13;;
17414;SDS011;8825;48.086;16.426;2023-02-12T12:24:44;11.60;;;10.30;;
17414;SDS011;8825;48.086;16.426;2023-02-12T12:30:15;15.80;;;11.77;;
17414;SDS011;8825;48.086;16.426;2023-02-12T12:32:59;11.87;;;9.47;;
17414;SDS011;8825;48.086;16.426;2023-02-12T12:35:44;12.47;;;10.03;;
17414;SDS011;8825;48.086;16.426;2023-02-12T12:38:35;12.27;;;9.80;;
17414;SDS011;8825;48.086;16.426;2023-02-12T12:41:38;12.27;;;9.77;;
17414;SDS011;8825;48.086;16.426;2023-02-12T12:49:35;13.33;;;11.30;;
17414;SDS011;8825;48.086;16.426;2023-02-12T13:08:46;13.23;;;10.60;;
17414;SDS011;8825;48.086;16.426;2023-02-12T13:13:43;12.63;;;10.70;;
17414;SDS011;8825;48.086;16.426;2023-02-12T13:21:20;10.80;;;9.07;;
17414;SDS011;8825;48.086;16.426;2023-02-12T13:26:39;10.80;;;9.53;;
17414;SDS011;8825;48.086;16.426;2023-02-12T13:29:28;11.90;;;9.63;;
17414;SDS011;8825;48.086;16.426;2023-02-12T13:32:10;10.67;;;9.57;;
17414;SDS011;8825;48.086;16.426;2023-02-12T13:34:55;11.30;;;9.57;;
17414;SDS011;8825;48.086;16.426;2023-02-12T13:37:46;9.20;;;8.20;;
17414;SDS011;8825;48.086;16.426;2023-02-12T13:39:57;11.67;;;9.90;;
17414;SDS011;8825;48.086;16.426;2023-02-12T13:45:23;10.40;;;9.23;;
17414;SDS011;8825;48.086;16.426;2023-02-12T13:50:55;10.73;;;9.20;;
17414;SDS011;8825;48.086;16.426;2023-02-12T13:53:26;11.43;;;8.73;;
17414;SDS011;8825;48.086;16.426;2023-02-12T13:56:24;13.50;;;9.97;;
17414;SDS011;8825;48.086;16.426;2023-02-12T14:02:01;11.27;;;9.67;;
17414;SDS011;8825;48.086;16.426;2023-02-12T14:04:54;10.40;;;9.10;;
17414;SDS011;8825;48.086;16.426;2023-02-12T14:10:32;12.27;;;10.03;;
17414;SDS011;8825;48.086;16.426;2023-02-12T14:15:53;13.03;;;10.40;;
17414;SDS011;8825;48.086;16.426;2023-02-12T14:18:30;11.93;;;9.27;;
17414;SDS011;8825;48.086;16.426;2023-02-12T14:23:44;12.50;;;10.53;;
17414;SDS011;8825;48.086;16.426;2023-02-12T14:26:12;13.40;;;10.33;;
17414;SDS011;8825;48.086;16.426;2023-02-12T14:28:54;13.70;;;11.03;;
17414;SDS011;8825;48.086;16.426;2023-02-12T14:31:21;13.00;;;10.50;;
17414;SDS011;8825;48.086;16.426;2023-02-12T14:36:40;13.70;;;10.47;;
17414;SDS011;8825;48.086;16.426;2023-02-12T14:41:50;10.50;;;9.13;;
17414;SDS011;8825;48.086;16.426;2023-02-12T14:50:01;12.77;;;10.23;;
17414;SDS011;8825;48.086;16.426;2023-02-12T14:52:37;12.37;;;10.07;;
17414;SDS011;8825;48.086;16.426;2023-02-12T14:55:16;11.50;;;10.07;;
17414;SDS011;8825;48.086;16.426;2023-02-12T14:57:46;13.50;;;10.17;;
17414;SDS011;8825;48.086;16.426;2023-02-12T15:00:19;13.20;;;9.67;;
17414;SDS011;8825;48.086;16.426;2023-02-12T15:05:36;12.33;;;10.20;;
17414;SDS011;8825;48.086;16.426;2023-02-12T15:13:59;10.87;;;9.53;;
17414;SDS011;8825;48.086;16.426;2023-02-12T15:19:11;12.70;;;9.53;;
17414;SDS011;8825;48.086;16.426;2023-02-12T15:21:41;13.60;;;10.27;;
17414;SDS011;8825;48.086;16.426;2023-02-12T15:24:11;10.73;;;9.00;;
17414;SDS011;8825;48.086;16.426;2023-02-12T15:26:46;13.07;;;10.43;;
17414;SDS011;8825;48.086;16.426;2023-02-12T15:32:05;11.30;;;10.07;;
17414;SDS011;8825;48.086;16.426;2023-02-12T15:34:35;11.50;;;10.17;;
17414;SDS011;8825;48.086;16.426;2023-02-12T15:37:07;12.27;;;9.97;;
17414;SDS011;8825;48.086;16.426;2023-02-12T15:43:00;11.00;;;9.53;;
17414;SDS011;8825;48.086;16.426;2023-02-12T15:45:30;13.30;;;9.43;;
17414;SDS011;8825;48.086;16.426;2023-02-12T15:48:00;11.23;;;9.47;;
17414;SDS011;8825;48.086;16.426;2023-02-12T15:50:30;11.03;;;8.73;;
17414;SDS011;8825;48.086;16.426;2023-02-12T15:52:58;10.90;;;9.80;;
17414;SDS011;8825;48.086;16.426;2023-02-12T15:55:27;10.73;;;9.13;;
17414;SDS011;8825;48.086;16.426;2023-02-12T15:57:58;10.30;;;9.20;;
17414;SDS011;8825;48.086;16.426;2023-02-12T16:00:38;11.60;;;9.63;;
17414;SDS011;8825;48.086;16.426;2023-02-12T16:03:23;10.73;;;8.87;;
17414;SDS011;8825;48.086;16.426;2023-02-12T16:06:10;11.63;;;9.80;;
17414;SDS011;8825;48.086;16.426;2023-02-12T16:08:44;10.27;;;9.03;;
17414;SDS011;8825;48.086;16.426;2023-02-12T16:11:21;10.53;;;9.40;;
17414;SDS011;8825;48.086;16.426;2023-02-12T16:14:18;9.80;;;8.80;;
17414;SDS011;8825;48.086;16.426;2023-02-12T16:16:49;11.10;;;9.60;;
17414;SDS011;8825;48.086;16.426;2023-02-12T16:19:23;11.43;;;9.73;;
17414;SDS011;8825;48.086;16.426;2023-02-12T16:21:59;10.97;;;9.00;;
17414;SDS011;8825;48.086;16.426;2023-02-12T16:24:52;12.33;;;10.03;;
17414;SDS011;8825;48.086;16.426;2023-02-12T16:27:18;10.17;;;9.07;;
17414;SDS011;8825;48.086;16.426;2023-02-12T16:29:52;10.90;;;9.37;;
17414;SDS011;8825;48.086;16.426;2023-02-12T16:35:33;12.40;;;10.20;;
17414;SDS011;8825;48.086;16.426;2023-02-12T16:43:41;11.10;;;9.40;;
17414;SDS011;8825;48.086;16.426;2023-02-12T16:46:10;11.93;;;9.70;;
17414;SDS011;8825;48.086;16.426;2023-02-12T16:48:40;11.30;;;9.67;;
17414;SDS011;8825;48.086;16.426;2023-02-12T16:51:29;10.77;;;9.30;;
17414;SDS011;8825;48.086;16.426;2023-02-12T16:53:58;11.80;;;10.10;;
17414;SDS011;8825;48.086;16.426;2023-02-12T16:56:32;11.40;;;9.57;;
17414;SDS011;8825;48.086;16.426;2023-02-12T16:59:02;11.77;;;10.30;;
17414;SDS011;8825;48.086;16.426;2023-02-12T17:01:31;12.17;;;10.00;;
17414;SDS011;8825;48.086;16.426;2023-02-12T17:04:03;11.37;;;9.90;;
17414;SDS011;8825;48.086;16.426;2023-02-12T17:06:33;12.23;;;10.33;;
17414;SDS011;8825;48.086;16.426;2023-02-12T17:09:01;12.63;;;10.23;;
17414;SDS011;8825;48.086;16.426;2023-02-12T17:11:29;12.37;;;11.07;;
17414;SDS011;8825;48.086;16.426;2023-02-12T17:16:44;13.13;;;10.97;;
17414;SDS011;8825;48.086;16.426;2023-02-12T17:19:12;13.27;;;11.07;;
17414;SDS011;8825;48.086;16.426;2023-02-12T17:21:45;11.97;;;10.67;;
17414;SDS011;8825;48.086;16.426;2023-02-12T17:24:16;12.20;;;10.43;;
17414;SDS011;8825;48.086;16.426;2023-02-12T17:26:50;12.30;;;9.93;;
17414;SDS011;8825;48.086;16.426;2023-02-12T17:29:19;11.23;;;9.93;;
17414;SDS011;8825;48.086;16.426;2023-02-12T17:31:48;13.67;;;11.67;;
17414;SDS011;8825;48.086;16.426;2023-02-12T17:34:18;12.07;;;10.77;;
17414;SDS011;8825;48.086;16.426;2023-02-12T17:36:46;11.40;;;10.23;;
17414;SDS011;8825;48.086;16.426;2023-02-12T17:39:14;13.33;;;11.47;;
17414;SDS011;8825;48.086;16.426;2023-02-12T17:41:43;11.97;;;10.27;;
17414;SDS011;8825;48.086;16.426;2023-02-12T17:44:11;12.83;;;10.17;;
17414;SDS011;8825;48.086;16.426;2023-02-12T17:46:40;11.43;;;9.87;;
17414;SDS011;8825;48.086;16.426;2023-02-12T17:49:08;12.70;;;10.50;;
17414;SDS011;8825;48.086;16.426;2023-02-12T17:51:36;13.60;;;10.90;;
17414;SDS011;8825;48.086;16.426;2023-02-12T17:54:04;13.20;;;11.23;;
17414;SDS011;8825;48.086;16.426;2023-02-12T17:56:32;14.47;;;12.47;;
17414;SDS011;8825;48.086;16.426;2023-02-12T17:58:59;12.57;;;11.00;;
17414;SDS011;8825;48.086;16.426;2023-02-12T18:01:27;15.87;;;13.37;;
17414;SDS011;8825;48.086;16.426;2023-02-12T18:03:56;12.33;;;10.87;;
17414;SDS011;8825;48.086;16.426;2023-02-12T18:06:25;14.93;;;12.10;;
17414;SDS011;8825;48.086;16.426;2023-02-12T18:08:55;15.20;;;12.47;;
17414;SDS011;8825;48.086;16.426;2023-02-12T18:11:23;14.67;;;11.53;;
17414;SDS011;8825;48.086;16.426;2023-02-12T18:13:52;13.83;;;11.30;;
17414;SDS011;8825;48.086;16.426;2023-02-12T18:16:21;15.23;;;12.33;;
17414;SDS011;8825;48.086;16.426;2023-02-12T18:18:50;14.60;;;12.17;;
17414;SDS011;8825;48.086;16.426;2023-02-12T18:21:18;13.90;;;12.17;;
17414;SDS011;8825;48.086;16.426;2023-02-12T18:23:45;15.20;;;12.20;;
17414;SDS011;8825;48.086;16.426;2023-02-12T18:26:14;14.30;;;12.20;;
17414;SDS011;8825;48.086;16.426;2023-02-12T18:28:43;12.80;;;11.30;;
17414;SDS011;8825;48.086;16.426;2023-02-12T18:31:11;15.03;;;12.57;;
17414;SDS011;8825;48.086;16.426;2023-02-12T18:33:39;14.37;;;12.83;;
17414;SDS011;8825;48.086;16.426;2023-02-12T18:36:08;15.37;;;12.37;;
17414;SDS011;8825;48.086;16.426;2023-02-12T18:38:38;14.30;;;12.43;;
17414;SDS011;8825;48.086;16.426;2023-02-12T18:41:14;14.80;;;12.60;;
17414;SDS011;8825;48.086;16.426;2023-02-12T18:43:43;14.20;;;12.70;;
17414;SDS011;8825;48.086;16.426;2023-02-12T18:46:12;13.43;;;11.77;;
17414;SDS011;8825;48.086;16.426;2023-02-12T18:48:42;13.93;;;12.23;;
17414;SDS011;8825;48.086;16.426;2023-02-12T18:51:12;13.00;;;11.50;;
17414;SDS011;8825;48.086;16.426;2023-02-12T18:53:40;15.70;;;12.73;;
17414;SDS011;8825;48.086;16.426;2023-02-12T18:56:07;13.93;;;12.17;;
17414;SDS011;8825;48.086;16.426;2023-02-12T18:58:37;16.47;;;13.27;;
17414;SDS011;8825;48.086;16.426;2023-02-12T19:01:11;15.07;;;12.87;;
17414;SDS011;8825;48.086;16.426;2023-02-12T19:03:40;13.97;;;12.10;;
17414;SDS011;8825;48.086;16.426;2023-02-12T19:06:08;14.90;;;11.43;;
17414;SDS011;8825;48.086;16.426;2023-02-12T19:08:36;12.63;;;11.30;;
17414;SDS011;8825;48.086;16.426;2023-02-12T19:11:06;14.67;;;12.83;;
17414;SDS011;8825;48.086;16.426;2023-02-12T19:13:36;15.00;;;12.70;;
17414;SDS011;8825;48.086;16.426;2023-02-12T19:16:05;15.80;;;12.97;;
17414;SDS011;8825;48.086;16.426;2023-02-12T19:18:34;14.27;;;12.73;;
17414;SDS011;8825;48.086;16.426;2023-02-12T19:21:08;15.23;;;12.63;;
17414;SDS011;8825;48.086;16.426;2023-02-12T19:23:38;14.53;;;12.83;;
17414;SDS011;8825;48.086;16.426;2023-02-12T19:26:07;16.40;;;12.83;;
17414;SDS011;8825;48.086;16.426;2023-02-12T19:28:36;13.00;;;11.60;;
17414;SDS011;8825;48.086;16.426;2023-02-12T19:31:11;15.10;;;12.60;;
17414;SDS011;8825;48.086;16.426;2023-02-12T19:34:00;14.43;;;12.67;;
17414;SDS011;8825;48.086;16.426;2023-02-12T19:36:30;15.80;;;12.87;;
17414;SDS011;8825;48.086;16.426;2023-02-12T19:39:00;16.23;;;13.70;;
17414;SDS011;8825;48.086;16.426;2023-02-12T19:41:29;15.80;;;13.30;;
17414;SDS011;8825;48.086;16.426;2023-02-12T19:46:48;13.47;;;12.03;;
17414;SDS011;8825;48.086;16.426;2023-02-12T19:49:18;14.83;;;12.83;;
17414;SDS011;8825;48.086;16.426;2023-02-12T19:51:47;15.27;;;12.47;;
17414;SDS011;8825;48.086;16.426;2023-02-12T19:54:16;15.00;;;13.37;;
17414;SDS011;8825;48.086;16.426;2023-02-12T19:56:45;15.07;;;13.47;;
17414;SDS011;8825;48.086;16.426;2023-02-12T19:59:14;16.23;;;13.57;;
17414;SDS011;8825;48.086;16.426;2023-02-12T20:01:43;15.80;;;14.07;;
17414;SDS011;8825;48.086;16.426;2023-02-12T20:04:11;16.43;;;14.57;;
17414;SDS011;8825;48.086;16.426;2023-02-12T20:06:40;15.13;;;13.40;;
17414;SDS011;8825;48.086;16.426;2023-02-12T20:09:10;15.40;;;13.37;;
17414;SDS011;8825;48.086;16.426;2023-02-12T20:11:38;16.07;;;13.70;;
17414;SDS011;8825;48.086;16.426;2023-02-12T20:14:07;15.77;;;13.90;;
17414;SDS011;8825;48.086;16.426;2023-02-12T20:16:36;15.80;;;13.80;;
17414;SDS011;8825;48.086;16.426;2023-02-12T20:19:07;14.53;;;13.03;;
17414;SDS011;8825;48.086;16.426;2023-02-12T20:21:37;14.60;;;13.03;;
17414;SDS011;8825;48.086;16.426;2023-02-12T20:24:05;13.60;;;12.20;;
17414;SDS011;8825;48.086;16.426;2023-02-12T20:26:33;13.70;;;12.30;;
17414;SDS011;8825;48.086;16.426;2023-02-12T20:29:02;16.13;;;13.53;;